FlightSource - Aviation Photo Database

World Wide Airport Lookup


Search by ICAO
Or
Search by City

FlightSource.ca - Aviation Photo Database - Bob Baker Memorial Airport Information
Airport Identification
Name: Bob Baker Memorial Airport
ICAO: PAIK
IATA:
Airport Location
City: Kiana
Region: AK
Country: United States
Continent: North America
Latitude: 66.976
Longitude: -160.437
Airport Information
Type: Medium Airport
Elevation: 166 Feet ASL
Flight Status: PAIK
More Info: PAIK
Airport Weather    
Metar: PAIK 210825Z AUTO 35007KT 10SM BKN028 OVC065 04/02 A3013 RMK AO2 RAB03E24 P0000
TAF:


Advertisement